sensor_id;sensor_type;location;lat;lon;timestamp;pressure;altitude;pressure_sealevel;temperature;humidity
5455;BME280;2750;49.050;9.250;2024-02-04T00:03:49;99856.97;;;10.47;90.30
5455;BME280;2750;49.050;9.250;2024-02-04T00:08:50;99851.28;;;10.35;90.82
5455;BME280;2750;49.050;9.250;2024-02-04T00:13:52;99812.53;;;10.29;91.22
5455;BME280;2750;49.050;9.250;2024-02-04T00:18:55;99815.97;;;10.31;91.06
5455;BME280;2750;49.050;9.250;2024-02-04T00:23:56;99825.56;;;10.57;90.73
5455;BME280;2750;49.050;9.250;2024-02-04T00:28:58;99840.09;;;10.33;91.16
5455;BME280;2750;49.050;9.250;2024-02-04T00:34:01;99832.09;;;10.08;92.39
5455;BME280;2750;49.050;9.250;2024-02-04T00:39:02;99836.28;;;10.46;90.94
5455;BME280;2750;49.050;9.250;2024-02-04T00:44:04;99844.81;;;10.19;92.21
5455;BME280;2750;49.050;9.250;2024-02-04T00:49:07;99869.66;;;9.93;92.90
5455;BME280;2750;49.050;9.250;2024-02-04T00:54:08;99852.78;;;10.11;92.15
5455;BME280;2750;49.050;9.250;2024-02-04T00:59:10;99864.28;;;10.33;91.92
5455;BME280;2750;49.050;9.250;2024-02-04T01:04:13;99849.25;;;10.14;91.96
5455;BME280;2750;49.050;9.250;2024-02-04T01:09:15;99842.47;;;10.08;91.55
5455;BME280;2750;49.050;9.250;2024-02-04T01:14:16;99850.00;;;10.19;91.55
5455;BME280;2750;49.050;9.250;2024-02-04T01:19:19;99853.16;;;10.30;90.94
5455;BME280;2750;49.050;9.250;2024-02-04T01:24:20;99844.31;;;10.37;90.73
5455;BME280;2750;49.050;9.250;2024-02-04T01:29:22;99846.91;;;10.04;92.43
5455;BME280;2750;49.050;9.250;2024-02-04T01:34:25;99839.53;;;10.22;91.91
5455;BME280;2750;49.050;9.250;2024-02-04T01:39:26;99843.00;;;10.22;91.37
5455;BME280;2750;49.050;9.250;2024-02-04T01:44:27;99831.97;;;10.13;92.69
5455;BME280;2750;49.050;9.250;2024-02-04T01:49:30;99837.22;;;10.11;92.72
5455;BME280;2750;49.050;9.250;2024-02-04T01:54:33;99821.56;;;10.16;92.41
5455;BME280;2750;49.050;9.250;2024-02-04T01:59:34;99822.59;;;10.08;92.53
5455;BME280;2750;49.050;9.250;2024-02-04T02:04:38;99832.03;;;10.11;92.54
5455;BME280;2750;49.050;9.250;2024-02-04T02:09:40;99815.13;;;10.29;92.07
5455;BME280;2750;49.050;9.250;2024-02-04T02:14:44;99813.91;;;10.42;90.96
5455;BME280;2750;49.050;9.250;2024-02-04T02:19:57;99821.56;;;10.14;91.85
5455;BME280;2750;49.050;9.250;2024-02-04T02:25:04;99807.09;;;10.38;91.12
5455;BME280;2750;49.050;9.250;2024-02-04T02:30:08;99815.22;;;10.26;91.61
5455;BME280;2750;49.050;9.250;2024-02-04T02:35:11;99810.91;;;10.54;90.22
5455;BME280;2750;49.050;9.250;2024-02-04T02:40:21;99814.19;;;10.61;89.84
5455;BME280;2750;49.050;9.250;2024-02-04T02:45:25;99813.06;;;10.40;90.75
5455;BME280;2750;49.050;9.250;2024-02-04T02:50:27;99821.88;;;10.64;89.92
5455;BME280;2750;49.050;9.250;2024-02-04T02:55:30;99812.47;;;10.61;89.60
5455;BME280;2750;49.050;9.250;2024-02-04T03:00:32;99818.06;;;10.75;89.71
5455;BME280;2750;49.050;9.250;2024-02-04T03:05:34;99812.16;;;10.70;89.28
5455;BME280;2750;49.050;9.250;2024-02-04T03:10:36;99800.47;;;10.57;89.83
5455;BME280;2750;49.050;9.250;2024-02-04T03:15:38;99800.94;;;10.70;89.00
5455;BME280;2750;49.050;9.250;2024-02-04T03:20:41;99805.38;;;10.66;89.39
5455;BME280;2750;49.050;9.250;2024-02-04T03:25:44;99800.19;;;10.66;89.07
5455;BME280;2750;49.050;9.250;2024-02-04T03:30:45;99807.44;;;10.55;89.80
5455;BME280;2750;49.050;9.250;2024-02-04T03:35:47;99803.13;;;10.83;88.80
5455;BME280;2750;49.050;9.250;2024-02-04T03:40:50;99808.13;;;10.62;88.94
5455;BME280;2750;49.050;9.250;2024-02-04T03:45:51;99803.50;;;10.71;89.03
5455;BME280;2750;49.050;9.250;2024-02-04T03:50:53;99807.84;;;10.98;88.62
5455;BME280;2750;49.050;9.250;2024-02-04T03:55:55;99812.25;;;11.23;87.06
5455;BME280;2750;49.050;9.250;2024-02-04T04:00:57;99823.75;;;11.42;86.61
5455;BME280;2750;49.050;9.250;2024-02-04T04:05:59;99810.81;;;11.13;87.41
5455;BME280;2750;49.050;9.250;2024-02-04T04:11:02;99822.94;;;11.14;87.34
5455;BME280;2750;49.050;9.250;2024-02-04T04:16:05;99823.59;;;10.92;87.73
5455;BME280;2750;49.050;9.250;2024-02-04T04:21:07;99831.94;;;11.02;87.59
5455;BME280;2750;49.050;9.250;2024-02-04T04:26:10;99826.72;;;11.03;87.21
5455;BME280;2750;49.050;9.250;2024-02-04T04:31:11;99831.81;;;11.07;86.99
5455;BME280;2750;49.050;9.250;2024-02-04T04:36:13;99819.13;;;11.24;86.40
5455;BME280;2750;49.050;9.250;2024-02-04T04:41:16;99826.31;;;11.16;87.13
5455;BME280;2750;49.050;9.250;2024-02-04T04:46:17;99824.41;;;10.94;87.21
5455;BME280;2750;49.050;9.250;2024-02-04T04:51:18;99824.13;;;11.03;87.21
5455;BME280;2750;49.050;9.250;2024-02-04T04:56:21;99823.13;;;11.08;87.01
5455;BME280;2750;49.050;9.250;2024-02-04T05:01:23;99816.78;;;11.16;86.51
5455;BME280;2750;49.050;9.250;2024-02-04T05:06:24;99816.88;;;10.85;87.52
5455;BME280;2750;49.050;9.250;2024-02-04T05:11:27;99815.59;;;11.26;86.23
5455;BME280;2750;49.050;9.250;2024-02-04T05:16:30;99817.38;;;10.98;87.17
5455;BME280;2750;49.050;9.250;2024-02-04T05:21:31;99823.03;;;11.11;86.71
5455;BME280;2750;49.050;9.250;2024-02-04T05:26:34;99811.41;;;11.22;86.74
5455;BME280;2750;49.050;9.250;2024-02-04T05:31:40;99813.50;;;11.37;87.18
5455;BME280;2750;49.050;9.250;2024-02-04T05:36:42;99815.78;;;10.92;89.24
5455;BME280;2750;49.050;9.250;2024-02-04T05:41:44;99810.66;;;10.91;88.35
5455;BME280;2750;49.050;9.250;2024-02-04T05:46:46;99819.44;;;11.15;87.39
5455;BME280;2750;49.050;9.250;2024-02-04T05:51:48;99827.09;;;10.91;88.50
5455;BME280;2750;49.050;9.250;2024-02-04T05:56:51;99825.28;;;10.93;88.08
5455;BME280;2750;49.050;9.250;2024-02-04T06:01:52;99817.19;;;10.76;88.93
5455;BME280;2750;49.050;9.250;2024-02-04T06:06:54;99815.69;;;10.69;88.99
5455;BME280;2750;49.050;9.250;2024-02-04T06:11:56;99797.50;;;10.69;89.45
5455;BME280;2750;49.050;9.250;2024-02-04T06:16:58;99816.72;;;10.62;89.69
5455;BME280;2750;49.050;9.250;2024-02-04T06:21:59;99805.81;;;10.51;90.05
5455;BME280;2750;49.050;9.250;2024-02-04T06:27:03;99801.88;;;10.67;90.36
5455;BME280;2750;49.050;9.250;2024-02-04T06:32:05;99795.94;;;10.64;89.91
5455;BME280;2750;49.050;9.250;2024-02-04T06:37:06;99804.50;;;10.66;89.91
5455;BME280;2750;49.050;9.250;2024-02-04T06:42:09;99810.03;;;10.55;90.60
5455;BME280;2750;49.050;9.250;2024-02-04T06:47:12;99813.84;;;10.73;89.37
5455;BME280;2750;49.050;9.250;2024-02-04T06:52:15;99800.63;;;10.80;88.98
5455;BME280;2750;49.050;9.250;2024-02-04T06:57:17;99783.91;;;10.61;89.10
5455;BME280;2750;49.050;9.250;2024-02-04T07:02:19;99796.59;;;10.70;88.86
5455;BME280;2750;49.050;9.250;2024-02-04T07:07:21;99794.69;;;11.03;87.89
5455;BME280;2750;49.050;9.250;2024-02-04T07:12:23;99782.53;;;10.77;87.95
5455;BME280;2750;49.050;9.250;2024-02-04T07:17:25;99797.03;;;10.84;87.88
5455;BME280;2750;49.050;9.250;2024-02-04T07:22:27;99780.53;;;10.85;88.10
5455;BME280;2750;49.050;9.250;2024-02-04T07:27:29;99784.84;;;11.13;87.03
5455;BME280;2750;49.050;9.250;2024-02-04T07:32:31;99804.03;;;11.09;86.97
5455;BME280;2750;49.050;9.250;2024-02-04T07:37:34;99814.88;;;11.21;86.98
5455;BME280;2750;49.050;9.250;2024-02-04T07:42:37;99809.91;;;11.15;86.23
5455;BME280;2750;49.050;9.250;2024-02-04T07:47:39;99814.63;;;11.29;86.31
5455;BME280;2750;49.050;9.250;2024-02-04T07:52:40;99797.69;;;11.17;85.82
5455;BME280;2750;49.050;9.250;2024-02-04T07:57:43;99789.75;;;11.22;86.50
5455;BME280;2750;49.050;9.250;2024-02-04T08:02:45;99792.28;;;11.23;85.83
5455;BME280;2750;49.050;9.250;2024-02-04T08:07:47;99806.38;;;11.16;86.63
5455;BME280;2750;49.050;9.250;2024-02-04T08:12:50;99805.13;;;11.28;86.54
5455;BME280;2750;49.050;9.250;2024-02-04T08:17:52;99801.34;;;11.38;86.00
5455;BME280;2750;49.050;9.250;2024-02-04T08:22:54;99805.03;;;11.31;86.38
5455;BME280;2750;49.050;9.250;2024-02-04T08:27:58;99797.59;;;11.20;86.47
5455;BME280;2750;49.050;9.250;2024-02-04T08:32:59;99812.75;;;11.08;87.04
5455;BME280;2750;49.050;9.250;2024-02-04T08:38:01;99805.75;;;11.10;87.66
5455;BME280;2750;49.050;9.250;2024-02-04T08:43:04;99829.81;;;11.41;86.76
5455;BME280;2750;49.050;9.250;2024-02-04T08:48:06;99823.47;;;11.49;86.23
5455;BME280;2750;49.050;9.250;2024-02-04T08:53:07;99829.81;;;11.67;85.75
5455;BME280;2750;49.050;9.250;2024-02-04T08:58:10;99815.53;;;11.80;84.86
5455;BME280;2750;49.050;9.250;2024-02-04T09:03:12;99818.72;;;11.36;86.46
5455;BME280;2750;49.050;9.250;2024-02-04T09:08:14;99801.00;;;11.22;86.64
5455;BME280;2750;49.050;9.250;2024-02-04T09:13:17;99829.81;;;11.67;85.58
5455;BME280;2750;49.050;9.250;2024-02-04T09:18:18;99830.69;;;11.15;87.05
5455;BME280;2750;49.050;9.250;2024-02-04T09:23:20;99843.59;;;11.69;85.80
5455;BME280;2750;49.050;9.250;2024-02-04T09:28:23;99833.31;;;11.40;85.90
5455;BME280;2750;49.050;9.250;2024-02-04T09:33:24;99822.72;;;11.97;84.17
5455;BME280;2750;49.050;9.250;2024-02-04T09:38:26;99820.28;;;12.40;83.38
5455;BME280;2750;49.050;9.250;2024-02-04T09:43:29;99812.00;;;12.53;82.61
5455;BME280;2750;49.050;9.250;2024-02-04T09:48:33;99802.06;;;12.40;81.97
5455;BME280;2750;49.050;9.250;2024-02-04T09:53:35;99777.28;;;12.75;81.79
5455;BME280;2750;49.050;9.250;2024-02-04T09:58:39;99782.50;;;12.95;80.73
5455;BME280;2750;49.050;9.250;2024-02-04T10:03:40;99800.75;;;12.52;81.78
5455;BME280;2750;49.050;9.250;2024-02-04T10:08:42;99796.25;;;12.34;81.54
5455;BME280;2750;49.050;9.250;2024-02-04T10:13:46;99796.16;;;12.35;81.58
5455;BME280;2750;49.050;9.250;2024-02-04T10:18:48;99797.34;;;12.27;81.96
5455;BME280;2750;49.050;9.250;2024-02-04T10:23:50;99801.97;;;12.42;81.17
5455;BME280;2750;49.050;9.250;2024-02-04T10:28:53;99803.56;;;12.23;81.42
5455;BME280;2750;49.050;9.250;2024-02-04T10:33:55;99779.03;;;12.30;81.66
5455;BME280;2750;49.050;9.250;2024-02-04T10:38:57;99763.78;;;12.42;80.95
5455;BME280;2750;49.050;9.250;2024-02-04T10:44:02;99781.34;;;12.37;81.05
5455;BME280;2750;49.050;9.250;2024-02-04T10:49:08;99780.50;;;12.14;81.34
5455;BME280;2750;49.050;9.250;2024-02-04T10:54:15;99754.03;;;12.26;81.54
5455;BME280;2750;49.050;9.250;2024-02-04T10:59:19;99764.28;;;12.52;81.07
5455;BME280;2750;49.050;9.250;2024-02-04T11:04:23;99766.41;;;13.08;78.87
5455;BME280;2750;49.050;9.250;2024-02-04T11:09:26;99763.28;;;12.56;80.88
5455;BME280;2750;49.050;9.250;2024-02-04T11:14:30;99751.41;;;12.49;80.76
5455;BME280;2750;49.050;9.250;2024-02-04T11:19:40;99744.38;;;12.51;80.73
5455;BME280;2750;49.050;9.250;2024-02-04T11:25:03;99735.22;;;12.41;81.45
5455;BME280;2750;49.050;9.250;2024-02-04T11:30:12;99726.41;;;12.45;81.10
5455;BME280;2750;49.050;9.250;2024-02-04T11:35:15;99720.84;;;12.76;80.27
5455;BME280;2750;49.050;9.250;2024-02-04T11:40:17;99717.47;;;13.36;78.74
5455;BME280;2750;49.050;9.250;2024-02-04T11:45:20;99726.84;;;13.60;78.40
5455;BME280;2750;49.050;9.250;2024-02-04T11:50:28;99716.66;;;13.54;78.76
5455;BME280;2750;49.050;9.250;2024-02-04T11:55:30;99715.44;;;13.63;78.07
5455;BME280;2750;49.050;9.250;2024-02-04T12:00:33;99708.16;;;13.10;79.92
5455;BME280;2750;49.050;9.250;2024-02-04T12:05:35;99698.13;;;13.00;79.99
5455;BME280;2750;49.050;9.250;2024-02-04T12:10:39;99687.59;;;13.43;79.30
5455;BME280;2750;49.050;9.250;2024-02-04T12:15:43;99683.84;;;13.10;80.18
5455;BME280;2750;49.050;9.250;2024-02-04T12:20:46;99669.78;;;12.92;80.64
5455;BME280;2750;49.050;9.250;2024-02-04T12:25:48;99673.00;;;13.19;79.77
5455;BME280;2750;49.050;9.250;2024-02-04T12:30:55;99675.13;;;13.11;80.01
5455;BME280;2750;49.050;9.250;2024-02-04T12:35:58;99665.28;;;12.95;80.33
5455;BME280;2750;49.050;9.250;2024-02-04T12:41:03;99659.44;;;12.49;81.48
5455;BME280;2750;49.050;9.250;2024-02-04T12:46:06;99667.03;;;13.17;81.15
5455;BME280;2750;49.050;9.250;2024-02-04T12:51:09;99690.13;;;12.84;81.03
5455;BME280;2750;49.050;9.250;2024-02-04T12:56:11;99680.44;;;13.48;79.67
5455;BME280;2750;49.050;9.250;2024-02-04T13:01:14;99690.19;;;12.61;81.16
5455;BME280;2750;49.050;9.250;2024-02-04T13:06:15;99677.19;;;12.81;81.80
5455;BME280;2750;49.050;9.250;2024-02-04T13:11:19;99682.16;;;12.45;82.37
5455;BME280;2750;49.050;9.250;2024-02-04T13:16:22;99689.88;;;12.25;83.38
5455;BME280;2750;49.050;9.250;2024-02-04T13:21:25;99671.47;;;12.51;82.81
5455;BME280;2750;49.050;9.250;2024-02-04T13:26:27;99665.34;;;12.09;84.00
5455;BME280;2750;49.050;9.250;2024-02-04T13:31:29;99640.06;;;12.12;83.98
5455;BME280;2750;49.050;9.250;2024-02-04T13:36:32;99646.66;;;11.99;84.37
5455;BME280;2750;49.050;9.250;2024-02-04T13:41:34;99655.06;;;12.06;84.02
5455;BME280;2750;49.050;9.250;2024-02-04T13:46:37;99625.78;;;12.01;84.30
5455;BME280;2750;49.050;9.250;2024-02-04T13:51:42;99667.94;;;11.62;85.10
5455;BME280;2750;49.050;9.250;2024-02-04T13:56:44;99670.41;;;11.65;85.50
5455;BME280;2750;49.050;9.250;2024-02-04T14:01:47;99681.28;;;11.53;86.24
5455;BME280;2750;49.050;9.250;2024-02-04T14:06:50;99682.50;;;11.66;85.80
5455;BME280;2750;49.050;9.250;2024-02-04T14:11:51;99686.56;;;11.50;86.29
5455;BME280;2750;49.050;9.250;2024-02-04T14:16:56;99695.69;;;11.86;85.63
5455;BME280;2750;49.050;9.250;2024-02-04T14:21:57;99693.41;;;12.01;84.39
5455;BME280;2750;49.050;9.250;2024-02-04T14:26:59;99696.97;;;11.98;84.59
5455;BME280;2750;49.050;9.250;2024-02-04T14:32:02;99711.84;;;12.18;84.54
5455;BME280;2750;49.050;9.250;2024-02-04T14:37:04;99709.81;;;11.79;84.95
5455;BME280;2750;49.050;9.250;2024-02-04T14:42:05;99719.13;;;11.85;85.07
5455;BME280;2750;49.050;9.250;2024-02-04T14:47:08;99720.19;;;11.55;87.05
5455;BME280;2750;49.050;9.250;2024-02-04T14:52:12;99713.53;;;11.72;86.62
5455;BME280;2750;49.050;9.250;2024-02-04T14:57:14;99706.19;;;11.83;86.08
5455;BME280;2750;49.050;9.250;2024-02-04T15:02:19;99703.44;;;11.63;86.56
5455;BME280;2750;49.050;9.250;2024-02-04T15:07:20;99697.47;;;12.08;85.66
5455;BME280;2750;49.050;9.250;2024-02-04T15:12:22;99687.19;;;12.05;85.24
5455;BME280;2750;49.050;9.250;2024-02-04T15:17:25;99681.84;;;11.61;87.23
5455;BME280;2750;49.050;9.250;2024-02-04T15:22:27;99685.59;;;11.77;86.89
5455;BME280;2750;49.050;9.250;2024-02-04T15:27:31;99677.94;;;12.19;86.27
5455;BME280;2750;49.050;9.250;2024-02-04T15:32:34;99676.34;;;12.15;85.52
5455;BME280;2750;49.050;9.250;2024-02-04T15:37:36;99664.81;;;11.77;86.33
5455;BME280;2750;49.050;9.250;2024-02-04T15:42:37;99673.97;;;12.11;85.44
5455;BME280;2750;49.050;9.250;2024-02-04T15:47:46;99655.78;;;12.09;85.00
5455;BME280;2750;49.050;9.250;2024-02-04T15:52:50;99670.50;;;11.64;86.98
5455;BME280;2750;49.050;9.250;2024-02-04T15:57:52;99663.97;;;11.52;87.53
5455;BME280;2750;49.050;9.250;2024-02-04T16:02:56;99662.06;;;11.57;86.99
5455;BME280;2750;49.050;9.250;2024-02-04T16:07:58;99665.34;;;11.62;86.56
5455;BME280;2750;49.050;9.250;2024-02-04T16:13:00;99658.28;;;11.66;86.75
5455;BME280;2750;49.050;9.250;2024-02-04T16:18:05;99654.47;;;11.51;86.89
5455;BME280;2750;49.050;9.250;2024-02-04T16:23:07;99657.84;;;11.30;87.93
5455;BME280;2750;49.050;9.250;2024-02-04T16:28:08;99654.88;;;11.40;87.06
5455;BME280;2750;49.050;9.250;2024-02-04T16:33:11;99670.59;;;11.37;86.97
5455;BME280;2750;49.050;9.250;2024-02-04T16:38:13;99669.50;;;11.43;87.08
5455;BME280;2750;49.050;9.250;2024-02-04T16:43:14;99654.63;;;11.46;86.62
5455;BME280;2750;49.050;9.250;2024-02-04T16:48:17;99655.53;;;11.22;87.95
5455;BME280;2750;49.050;9.250;2024-02-04T16:53:19;99654.09;;;11.14;87.69
5455;BME280;2750;49.050;9.250;2024-02-04T16:58:20;99664.41;;;11.40;87.51
5455;BME280;2750;49.050;9.250;2024-02-04T17:03:23;99669.38;;;11.46;87.12
5455;BME280;2750;49.050;9.250;2024-02-04T17:08:26;99662.19;;;11.29;87.74
5455;BME280;2750;49.050;9.250;2024-02-04T17:13:28;99659.66;;;11.28;87.92
5455;BME280;2750;49.050;9.250;2024-02-04T17:18:38;99676.13;;;11.51;86.66
5455;BME280;2750;49.050;9.250;2024-02-04T17:23:49;99666.00;;;11.44;87.25
5455;BME280;2750;49.050;9.250;2024-02-04T17:28:52;99676.25;;;11.24;87.76
5455;BME280;2750;49.050;9.250;2024-02-04T17:33:55;99676.50;;;11.41;86.98
5455;BME280;2750;49.050;9.250;2024-02-04T17:38:57;99672.91;;;11.45;86.58
5455;BME280;2750;49.050;9.250;2024-02-04T17:43:58;99663.97;;;11.52;86.15
5455;BME280;2750;49.050;9.250;2024-02-04T17:49:01;99676.63;;;11.38;87.14
5455;BME280;2750;49.050;9.250;2024-02-04T17:54:05;99672.16;;;11.41;86.70
5455;BME280;2750;49.050;9.250;2024-02-04T17:59:07;99656.75;;;11.60;86.64
5455;BME280;2750;49.050;9.250;2024-02-04T18:04:10;99670.53;;;11.62;85.99
5455;BME280;2750;49.050;9.250;2024-02-04T18:09:12;99673.56;;;11.75;86.04
5455;BME280;2750;49.050;9.250;2024-02-04T18:14:13;99669.34;;;11.47;86.41
5455;BME280;2750;49.050;9.250;2024-02-04T18:19:16;99663.72;;;11.35;86.68
5455;BME280;2750;49.050;9.250;2024-02-04T18:24:18;99675.94;;;11.33;86.91
5455;BME280;2750;49.050;9.250;2024-02-04T18:29:20;99674.22;;;11.32;86.81
5455;BME280;2750;49.050;9.250;2024-02-04T18:34:25;99673.34;;;11.33;86.91
5455;BME280;2750;49.050;9.250;2024-02-04T18:39:27;99667.97;;;11.13;87.13
5455;BME280;2750;49.050;9.250;2024-02-04T18:44:28;99675.97;;;11.31;87.40
5455;BME280;2750;49.050;9.250;2024-02-04T18:49:31;99645.44;;;11.13;87.50
5455;BME280;2750;49.050;9.250;2024-02-04T18:54:34;99650.69;;;11.12;87.66
5455;BME280;2750;49.050;9.250;2024-02-04T18:59:36;99646.09;;;10.95;87.75
5455;BME280;2750;49.050;9.250;2024-02-04T19:04:39;99653.63;;;11.02;87.88
5455;BME280;2750;49.050;9.250;2024-02-04T19:09:41;99658.69;;;11.06;87.83
5455;BME280;2750;49.050;9.250;2024-02-04T19:14:42;99648.09;;;11.12;87.85
5455;BME280;2750;49.050;9.250;2024-02-04T19:19:46;99659.38;;;10.86;88.25
5455;BME280;2750;49.050;9.250;2024-02-04T19:24:47;99658.34;;;10.91;88.17
5455;BME280;2750;49.050;9.250;2024-02-04T19:29:49;99660.22;;;10.86;88.37
5455;BME280;2750;49.050;9.250;2024-02-04T19:34:52;99661.00;;;11.15;86.96
5455;BME280;2750;49.050;9.250;2024-02-04T19:39:53;99650.59;;;11.15;86.29
5455;BME280;2750;49.050;9.250;2024-02-04T19:44:55;99643.44;;;10.96;87.16
5455;BME280;2750;49.050;9.250;2024-02-04T19:49:58;99648.91;;;11.14;86.46
5455;BME280;2750;49.050;9.250;2024-02-04T19:55:00;99654.03;;;11.40;85.70
5455;BME280;2750;49.050;9.250;2024-02-04T20:00:01;99654.66;;;10.97;86.94
5455;BME280;2750;49.050;9.250;2024-02-04T20:05:08;99657.84;;;11.05;85.78
5455;BME280;2750;49.050;9.250;2024-02-04T20:10:09;99647.78;;;10.96;85.90
5455;BME280;2750;49.050;9.250;2024-02-04T20:15:11;99650.09;;;10.79;86.62
5455;BME280;2750;49.050;9.250;2024-02-04T20:20:14;99650.81;;;11.33;84.76
5455;BME280;2750;49.050;9.250;2024-02-04T20:25:15;99667.44;;;11.28;84.79
5455;BME280;2750;49.050;9.250;2024-02-04T20:30:17;99656.16;;;11.04;85.54
5455;BME280;2750;49.050;9.250;2024-02-04T20:35:20;99649.25;;;11.28;84.53
5455;BME280;2750;49.050;9.250;2024-02-04T20:40:24;99651.31;;;10.93;85.73
5455;BME280;2750;49.050;9.250;2024-02-04T20:45:27;99636.47;;;10.97;85.77
5455;BME280;2750;49.050;9.250;2024-02-04T20:50:30;99626.06;;;10.98;86.17
5455;BME280;2750;49.050;9.250;2024-02-04T20:55:31;99619.97;;;10.73;86.72
5455;BME280;2750;49.050;9.250;2024-02-04T21:00:33;99618.94;;;10.79;86.61
5455;BME280;2750;49.050;9.250;2024-02-04T21:05:36;99624.00;;;10.57;87.18
5455;BME280;2750;49.050;9.250;2024-02-04T21:10:39;99618.69;;;10.62;87.25
5455;BME280;2750;49.050;9.250;2024-02-04T21:15:41;99613.00;;;10.75;86.62
5455;BME280;2750;49.050;9.250;2024-02-04T21:20:44;99596.88;;;10.41;87.22
5455;BME280;2750;49.050;9.250;2024-02-04T21:25:45;99593.16;;;10.48;87.60
5455;BME280;2750;49.050;9.250;2024-02-04T21:30:47;99602.44;;;10.29;87.94
5455;BME280;2750;49.050;9.250;2024-02-04T21:35:50;99591.94;;;10.33;88.26
5455;BME280;2750;49.050;9.250;2024-02-04T21:40:54;99575.75;;;10.25;88.25
5455;BME280;2750;49.050;9.250;2024-02-04T21:45:55;99602.28;;;10.35;88.17
5455;BME280;2750;49.050;9.250;2024-02-04T21:50:58;99606.94;;;10.76;87.27
5455;BME280;2750;49.050;9.250;2024-02-04T21:55:59;99595.97;;;10.42;88.14
5455;BME280;2750;49.050;9.250;2024-02-04T22:01:01;99594.28;;;10.41;88.50
5455;BME280;2750;49.050;9.250;2024-02-04T22:06:04;99601.94;;;10.70;87.45
5455;BME280;2750;49.050;9.250;2024-02-04T22:11:05;99607.81;;;10.75;87.42
5455;BME280;2750;49.050;9.250;2024-02-04T22:16:07;99594.13;;;10.70;87.50
5455;BME280;2750;49.050;9.250;2024-02-04T22:21:17;99585.69;;;10.65;87.41
5455;BME280;2750;49.050;9.250;2024-02-04T22:26:19;99581.75;;;10.78;86.84
5455;BME280;2750;49.050;9.250;2024-02-04T22:31:21;99579.03;;;10.81;87.24
5455;BME280;2750;49.050;9.250;2024-02-04T22:36:24;99574.44;;;10.89;86.61
5455;BME280;2750;49.050;9.250;2024-02-04T22:41:27;99580.28;;;10.71;87.41
5455;BME280;2750;49.050;9.250;2024-02-04T22:46:29;99583.03;;;10.67;87.16
5455;BME280;2750;49.050;9.250;2024-02-04T22:51:32;99579.50;;;10.69;86.95
5455;BME280;2750;49.050;9.250;2024-02-04T22:56:35;99593.13;;;10.74;87.67
5455;BME280;2750;49.050;9.250;2024-02-04T23:01:37;99586.75;;;10.84;86.50
5455;BME280;2750;49.050;9.250;2024-02-04T23:06:39;99592.53;;;10.66;87.32
5455;BME280;2750;49.050;9.250;2024-02-04T23:11:41;99579.91;;;10.31;88.95
5455;BME280;2750;49.050;9.250;2024-02-04T23:16:43;99607.78;;;10.50;88.17
5455;BME280;2750;49.050;9.250;2024-02-04T23:21:45;99606.94;;;10.50;88.30
5455;BME280;2750;49.050;9.250;2024-02-04T23:26:47;99599.34;;;10.70;87.85
5455;BME280;2750;49.050;9.250;2024-02-04T23:31:48;99587.03;;;10.50;88.35
5455;BME280;2750;49.050;9.250;2024-02-04T23:36:51;99587.22;;;10.44;89.20
5455;BME280;2750;49.050;9.250;2024-02-04T23:41:53;99579.59;;;10.40;88.82
5455;BME280;2750;49.050;9.250;2024-02-04T23:46:54;99593.94;;;10.24;89.34
5455;BME280;2750;49.050;9.250;2024-02-04T23:51:57;99581.69;;;10.29;89.50
5455;BME280;2750;49.050;9.250;2024-02-04T23:56:59;99581.69;;;10.01;89.88
